createdAt,value
2023-01-08T00:03:40.033Z,6.47
2023-01-08T00:08:42.794Z,6.43
2023-01-08T00:13:44.550Z,5.85
2023-01-08T00:18:48.263Z,6.13
2023-01-08T00:23:50.982Z,6.07
2023-01-08T00:28:52.693Z,6.00
2023-01-08T00:33:54.443Z,6.22
2023-01-08T00:38:56.253Z,6.15
2023-01-08T00:43:58.241Z,6.22
2023-01-08T00:48:59.897Z,6.22
2023-01-08T00:54:01.658Z,6.22
2023-01-08T00:59:03.415Z,6.32
2023-01-08T01:04:06.826Z,6.70
2023-01-08T01:09:09.124Z,6.05
2023-01-08T01:14:10.834Z,5.82
2023-01-08T01:19:12.608Z,5.70
2023-01-08T01:24:15.665Z,5.72
2023-01-08T01:29:18.600Z,5.60
2023-01-08T01:34:20.370Z,5.63
2023-01-08T01:39:23.141Z,6.07
2023-01-08T01:44:43.996Z,5.95
2023-01-08T01:49:54.509Z,6.00
2023-01-08T01:55:03.604Z,5.63
2023-01-08T02:00:07.791Z,5.60
2023-01-08T02:05:10.073Z,5.60
2023-01-08T02:10:30.731Z,5.97
2023-01-08T02:16:02.322Z,5.55
2023-01-08T02:21:10.274Z,5.88
2023-01-08T02:26:31.135Z,5.50
2023-01-08T02:31:36.165Z,5.60
2023-01-08T02:36:55.248Z,5.68
2023-01-08T02:42:06.798Z,5.38
2023-01-08T02:47:14.271Z,5.38
2023-01-08T02:52:17.419Z,5.78
2023-01-08T02:57:23.294Z,5.32
2023-01-08T03:02:29.277Z,5.07
2023-01-08T03:07:31.403Z,4.93
2023-01-08T03:12:55.468Z,4.53
2023-01-08T03:18:05.393Z,4.63
2023-01-08T03:23:11.054Z,4.53
2023-01-08T03:28:19.106Z,4.88
2023-01-08T03:33:23.832Z,4.00
2023-01-08T03:38:33.964Z,4.38
2023-01-08T03:43:36.161Z,4.35
2023-01-08T03:48:38.693Z,4.00
2023-01-08T03:53:42.967Z,3.58
2023-01-08T03:58:45.275Z,3.55
2023-01-08T04:03:51.481Z,3.60
2023-01-08T04:08:53.239Z,4.00
2023-01-08T04:13:55.712Z,3.42
2023-01-08T04:18:57.428Z,3.35
2023-01-08T04:24:03.891Z,3.80
2023-01-08T04:29:05.773Z,3.53
2023-01-08T04:34:07.484Z,3.90
2023-01-08T04:39:11.483Z,3.67
2023-01-08T04:44:13.504Z,3.63
2023-01-08T04:49:15.284Z,3.50
2023-01-08T04:54:17.219Z,2.83
2023-01-08T04:59:19.430Z,3.35
2023-01-08T05:04:22.502Z,3.22
2023-01-08T05:09:24.236Z,3.42
2023-01-08T05:14:26.342Z,3.50
2023-01-08T05:19:28.051Z,3.20
2023-01-08T05:24:29.898Z,3.30
2023-01-08T05:29:31.573Z,3.20
2023-01-08T05:34:33.335Z,3.17
2023-01-08T05:39:35.084Z,2.85
2023-01-08T05:44:36.791Z,3.30
2023-01-08T05:49:38.592Z,3.17
2023-01-08T05:54:42.624Z,3.20
2023-01-08T05:59:44.362Z,3.38
2023-01-08T06:04:46.397Z,3.20
2023-01-08T06:09:48.235Z,3.38
2023-01-08T06:14:52.056Z,3.30
2023-01-08T06:19:54.195Z,3.20
2023-01-08T06:24:55.953Z,3.30
2023-01-08T06:30:00.090Z,3.67
2023-01-08T06:35:01.876Z,3.55
2023-01-08T06:40:04.125Z,3.75
2023-01-08T06:45:07.381Z,3.85
2023-01-08T06:50:09.998Z,4.05
2023-01-08T06:55:11.851Z,3.50
2023-01-08T07:00:14.588Z,4.20
2023-01-08T07:05:18.118Z,3.88
2023-01-08T07:10:20.316Z,3.70
2023-01-08T07:15:22.426Z,3.92
2023-01-08T07:20:24.140Z,3.97
2023-01-08T07:25:26.032Z,4.00
2023-01-08T07:30:30.314Z,3.95
2023-01-08T07:35:32.432Z,3.78
2023-01-08T07:40:34.249Z,3.90
2023-01-08T07:45:36.448Z,4.25
2023-01-08T07:50:41.472Z,3.63
2023-01-08T07:55:43.451Z,3.65
2023-01-08T08:00:45.201Z,4.07
2023-01-08T08:05:47.021Z,3.40
2023-01-08T08:10:48.990Z,3.30
2023-01-08T08:15:52.219Z,3.70
2023-01-08T08:20:53.959Z,3.75
2023-01-08T08:25:58.020Z,3.55
2023-01-08T08:30:59.880Z,4.15
2023-01-08T08:36:01.670Z,3.97
2023-01-08T08:41:03.515Z,4.15
2023-01-08T08:46:05.361Z,3.97
2023-01-08T08:51:09.240Z,3.88
2023-01-08T08:56:11.642Z,4.50
2023-01-08T09:01:13.468Z,4.40
2023-01-08T09:06:16.137Z,4.75
2023-01-08T09:11:17.871Z,4.50
2023-01-08T09:16:19.685Z,4.50
2023-01-08T09:21:21.995Z,4.70
2023-01-08T09:26:24.010Z,4.78
2023-01-08T09:31:26.677Z,5.28
2023-01-08T09:36:28.463Z,4.65
2023-01-08T09:41:36.245Z,4.38
2023-01-08T09:46:38.199Z,4.35
2023-01-08T09:51:40.648Z,4.40
2023-01-08T09:56:43.574Z,4.30
2023-01-08T10:01:46.215Z,4.93
2023-01-08T10:07:02.282Z,4.50
2023-01-08T10:12:06.782Z,4.20
2023-01-08T10:17:25.619Z,4.78
2023-01-08T10:22:33.863Z,4.18
2023-01-08T10:27:49.680Z,4.90
2023-01-08T10:32:57.149Z,4.70
2023-01-08T10:37:59.250Z,4.57
2023-01-08T10:43:21.121Z,4.25
2023-01-08T10:48:25.595Z,4.10
2023-01-08T10:53:29.993Z,4.47
2023-01-08T10:58:42.487Z,4.32
2023-01-08T11:03:49.826Z,4.25
2023-01-08T11:09:13.965Z,4.38
2023-01-08T11:14:26.555Z,4.85
2023-01-08T11:19:33.545Z,4.80
2023-01-08T11:24:39.994Z,5.22
2023-01-08T11:29:50.348Z,5.47
2023-01-08T11:35:20.204Z,5.15
2023-01-08T11:40:57.924Z,4.93
2023-01-08T11:46:02.950Z,4.80
2023-01-08T11:51:19.765Z,4.70
2023-01-08T11:56:54.750Z,5.43
2023-01-08T12:02:06.174Z,5.18
2023-01-08T12:07:30.727Z,5.32
2023-01-08T12:13:05.367Z,5.45
2023-01-08T12:18:34.864Z,4.90
2023-01-08T12:24:21.192Z,5.55
2023-01-08T12:29:29.061Z,5.05
2023-01-08T12:34:41.865Z,5.80
2023-01-08T12:39:51.606Z,4.95
2023-01-08T12:44:54.932Z,4.78
2023-01-08T12:50:14.886Z,4.68
2023-01-08T12:55:18.198Z,4.38
2023-01-08T13:00:31.243Z,4.70
2023-01-08T13:05:36.431Z,4.35
2023-01-08T13:10:51.275Z,4.53
2023-01-08T13:15:54.599Z,4.72
2023-01-08T13:21:02.159Z,4.60
2023-01-08T13:26:06.440Z,4.20
2023-01-08T13:31:11.306Z,3.70
2023-01-08T13:36:13.991Z,3.30
2023-01-08T13:41:32.186Z,3.35
2023-01-08T13:46:37.790Z,3.40
2023-01-08T13:51:49.972Z,3.30
2023-01-08T13:57:03.038Z,3.03
2023-01-08T14:02:21.743Z,3.05
2023-01-08T14:07:24.469Z,2.75
2023-01-08T14:12:26.202Z,2.58
2023-01-08T14:17:32.201Z,2.90
2023-01-08T14:22:36.152Z,2.90
2023-01-08T14:27:39.390Z,2.30
2023-01-08T14:32:45.075Z,2.50
2023-01-08T14:37:47.235Z,2.55
2023-01-08T14:42:53.530Z,2.20
2023-01-08T14:48:01.071Z,3.25
2023-01-08T14:53:11.212Z,2.60
2023-01-08T14:58:17.321Z,2.38
2023-01-08T15:03:43.545Z,2.70
2023-01-08T15:08:45.366Z,2.47
2023-01-08T15:13:49.623Z,2.30
2023-01-08T15:19:00.477Z,2.60
2023-01-08T15:24:03.749Z,2.20
2023-01-08T15:29:06.535Z,2.30
2023-01-08T15:34:08.762Z,2.30
2023-01-08T15:39:10.665Z,2.72
2023-01-08T15:44:12.941Z,2.38
2023-01-08T15:49:14.729Z,2.70
2023-01-08T15:54:19.169Z,2.60
2023-01-08T15:59:20.866Z,3.10
2023-01-08T16:04:22.790Z,2.72
2023-01-08T16:09:24.699Z,2.88
2023-01-08T16:14:26.489Z,2.90
2023-01-08T16:19:30.049Z,3.33
2023-01-08T16:24:34.684Z,3.30
2023-01-08T16:29:36.405Z,4.72
2023-01-08T16:34:38.168Z,6.55
2023-01-08T16:39:39.922Z,4.00
2023-01-08T16:44:42.543Z,3.92
2023-01-08T16:49:45.027Z,2.85
2023-01-08T16:54:48.958Z,2.58
2023-01-08T16:59:50.828Z,2.20
2023-01-08T17:04:52.576Z,2.30
2023-01-08T17:09:54.298Z,2.33
2023-01-08T17:14:56.255Z,2.35
2023-01-08T17:19:58.388Z,2.30
2023-01-08T17:25:00.129Z,2.80
2023-01-08T17:30:02.165Z,2.63
2023-01-08T17:35:05.118Z,2.60
2023-01-08T17:40:07.373Z,2.45
2023-01-08T17:45:09.731Z,2.38
2023-01-08T17:50:11.927Z,2.35
2023-01-08T17:55:13.841Z,2.35
2023-01-08T18:00:16.484Z,3.33
2023-01-08T18:05:18.304Z,2.35
2023-01-08T18:10:20.268Z,2.33
2023-01-08T18:15:25.028Z,2.05
2023-01-08T18:20:27.564Z,1.90
2023-01-08T18:25:29.335Z,2.33
2023-01-08T18:30:33.233Z,2.22
2023-01-08T18:35:34.976Z,2.13
2023-01-08T18:40:36.758Z,2.40
2023-01-08T18:45:40.293Z,3.03
2023-01-08T18:50:42.173Z,2.38
2023-01-08T18:55:44.031Z,2.45
2023-01-08T19:00:45.811Z,2.42
2023-01-08T19:05:47.578Z,5.10
2023-01-08T19:10:50.639Z,3.25
2023-01-08T19:15:52.474Z,3.38
2023-01-08T19:20:54.396Z,3.72
2023-01-08T19:25:56.073Z,4.57
2023-01-08T19:30:58.978Z,3.75
2023-01-08T19:36:12.326Z,4.18
2023-01-08T19:41:32.824Z,4.00
2023-01-08T19:46:36.258Z,3.40
2023-01-08T19:51:38.009Z,3.03
2023-01-08T19:56:39.844Z,3.70
2023-01-08T20:01:43.000Z,3.67
2023-01-08T20:06:44.916Z,3.97
2023-01-08T20:11:46.651Z,3.42
2023-01-08T20:16:48.375Z,4.10
2023-01-08T20:21:50.120Z,3.53
2023-01-08T20:26:51.850Z,4.13
2023-01-08T20:31:56.925Z,4.40
2023-01-08T20:36:59.808Z,3.83
2023-01-08T20:42:04.539Z,4.22
2023-01-08T20:47:06.857Z,3.83
2023-01-08T20:52:08.675Z,4.10
2023-01-08T20:57:10.639Z,4.03
2023-01-08T21:02:13.228Z,4.13
2023-01-08T21:07:15.442Z,4.00
2023-01-08T21:12:17.303Z,4.75
2023-01-08T21:17:19.843Z,4.65
2023-01-08T21:22:21.794Z,4.50
2023-01-08T21:27:23.665Z,4.75
2023-01-08T21:32:25.532Z,4.60
2023-01-08T21:37:27.966Z,4.75
2023-01-08T21:42:48.167Z,4.50
2023-01-08T21:47:50.138Z,4.72
2023-01-08T21:53:10.387Z,4.50
2023-01-08T21:58:12.446Z,4.72
2023-01-08T22:03:14.317Z,4.78
2023-01-08T22:08:18.509Z,4.38
2023-01-08T22:13:20.467Z,4.60
2023-01-08T22:18:22.340Z,4.90
2023-01-08T22:23:24.390Z,5.13
2023-01-08T22:28:26.668Z,5.00
2023-01-08T22:33:28.551Z,5.05
2023-01-08T22:38:30.450Z,4.60
2023-01-08T22:43:32.388Z,5.45
2023-01-08T22:48:35.407Z,5.53
2023-01-08T22:53:37.332Z,6.03
2023-01-08T22:58:41.756Z,5.15
2023-01-08T23:03:44.657Z,5.20
2023-01-08T23:08:47.227Z,5.20
2023-01-08T23:13:51.252Z,5.50
2023-01-08T23:18:54.499Z,5.22
2023-01-08T23:23:56.913Z,5.30
2023-01-08T23:28:59.186Z,5.78
2023-01-08T23:34:00.892Z,5.47
2023-01-08T23:39:02.634Z,5.47
2023-01-08T23:44:11.061Z,5.60
2023-01-08T23:49:12.886Z,5.78
2023-01-08T23:54:15.284Z,5.57
2023-01-08T23:59:17.085Z,5.68
